sensor_id;sensor_type;location;lat;lon;timestamp;P1;durP1;ratioP1;P2;durP2;ratioP2
55292;SDS011;41157;53.560;10.098;2022-07-01T00:02:16;8.98;;;6.32;;
55292;SDS011;41157;53.560;10.098;2022-07-01T00:04:42;10.77;;;5.18;;
55292;SDS011;41157;53.560;10.098;2022-07-01T00:07:08;8.02;;;5.22;;
55292;SDS011;41157;53.560;10.098;2022-07-01T00:09:36;12.77;;;3.80;;
55292;SDS011;41157;53.560;10.098;2022-07-01T00:12:02;5.20;;;3.53;;
55292;SDS011;41157;53.560;10.098;2022-07-01T00:14:28;5.47;;;2.95;;
55292;SDS011;41157;53.560;10.098;2022-07-01T00:16:55;4.25;;;2.40;;
55292;SDS011;41157;53.560;10.098;2022-07-01T00:19:21;6.13;;;2.30;;
55292;SDS011;41157;53.560;10.098;2022-07-01T00:21:47;3.58;;;1.90;;
55292;SDS011;41157;53.560;10.098;2022-07-01T00:24:13;2.45;;;2.08;;
55292;SDS011;41157;53.560;10.098;2022-07-01T00:26:39;2.42;;;2.10;;
55292;SDS011;41157;53.560;10.098;2022-07-01T00:29:05;3.45;;;1.98;;
55292;SDS011;41157;53.560;10.098;2022-07-01T00:31:31;2.10;;;1.90;;
55292;SDS011;41157;53.560;10.098;2022-07-01T00:33:57;2.42;;;2.15;;
55292;SDS011;41157;53.560;10.098;2022-07-01T00:36:22;2.65;;;2.45;;
55292;SDS011;41157;53.560;10.098;2022-07-01T00:38:48;3.70;;;2.40;;
55292;SDS011;41157;53.560;10.098;2022-07-01T00:41:14;2.78;;;2.47;;
55292;SDS011;41157;53.560;10.098;2022-07-01T00:43:41;4.60;;;2.55;;
55292;SDS011;41157;53.560;10.098;2022-07-01T00:46:07;6.47;;;2.83;;
55292;SDS011;41157;53.560;10.098;2022-07-01T00:48:33;4.45;;;2.83;;
55292;SDS011;41157;53.560;10.098;2022-07-01T00:50:59;6.70;;;3.28;;
55292;SDS011;41157;53.560;10.098;2022-07-01T00:53:25;8.98;;;3.50;;
55292;SDS011;41157;53.560;10.098;2022-07-01T00:55:52;11.55;;;3.42;;
55292;SDS011;41157;53.560;10.098;2022-07-01T00:58:18;9.07;;;3.67;;
55292;SDS011;41157;53.560;10.098;2022-07-01T01:00:44;9.00;;;3.47;;
55292;SDS011;41157;53.560;10.098;2022-07-01T01:03:10;8.43;;;3.63;;
55292;SDS011;41157;53.560;10.098;2022-07-01T01:05:37;11.07;;;4.55;;
55292;SDS011;41157;53.560;10.098;2022-07-01T01:08:03;16.70;;;6.53;;
55292;SDS011;41157;53.560;10.098;2022-07-01T01:10:30;11.10;;;4.65;;
55292;SDS011;41157;53.560;10.098;2022-07-01T01:12:56;9.35;;;4.60;;
55292;SDS011;41157;53.560;10.098;2022-07-01T01:15:23;11.65;;;4.70;;
55292;SDS011;41157;53.560;10.098;2022-07-01T01:17:49;11.80;;;4.20;;
55292;SDS011;41157;53.560;10.098;2022-07-01T01:20:16;5.93;;;3.90;;
55292;SDS011;41157;53.560;10.098;2022-07-01T01:22:43;8.13;;;3.90;;
55292;SDS011;41157;53.560;10.098;2022-07-01T01:25:09;6.30;;;4.22;;
55292;SDS011;41157;53.560;10.098;2022-07-01T01:27:35;6.35;;;4.13;;
55292;SDS011;41157;53.560;10.098;2022-07-01T01:30:02;6.07;;;4.32;;
55292;SDS011;41157;53.560;10.098;2022-07-01T01:32:28;7.25;;;4.30;;
55292;SDS011;41157;53.560;10.098;2022-07-01T01:34:54;7.18;;;4.80;;
55292;SDS011;41157;53.560;10.098;2022-07-01T01:37:20;9.30;;;4.40;;
55292;SDS011;41157;53.560;10.098;2022-07-01T01:39:46;10.00;;;4.57;;
55292;SDS011;41157;53.560;10.098;2022-07-01T01:42:12;7.65;;;4.75;;
55292;SDS011;41157;53.560;10.098;2022-07-01T01:44:38;7.30;;;4.53;;
55292;SDS011;41157;53.560;10.098;2022-07-01T01:47:04;7.28;;;4.63;;
55292;SDS011;41157;53.560;10.098;2022-07-01T01:49:31;9.05;;;5.18;;
55292;SDS011;41157;53.560;10.098;2022-07-01T01:51:57;6.82;;;4.93;;
55292;SDS011;41157;53.560;10.098;2022-07-01T01:54:24;10.23;;;4.45;;
55292;SDS011;41157;53.560;10.098;2022-07-01T01:56:50;8.73;;;5.38;;
55292;SDS011;41157;53.560;10.098;2022-07-01T01:59:16;7.78;;;4.93;;
55292;SDS011;41157;53.560;10.098;2022-07-01T02:01:42;9.73;;;5.38;;
55292;SDS011;41157;53.560;10.098;2022-07-01T02:04:08;9.38;;;5.30;;
55292;SDS011;41157;53.560;10.098;2022-07-01T02:06:34;10.48;;;5.43;;
55292;SDS011;41157;53.560;10.098;2022-07-01T02:09:00;8.45;;;5.50;;
55292;SDS011;41157;53.560;10.098;2022-07-01T02:11:26;9.93;;;5.45;;
55292;SDS011;41157;53.560;10.098;2022-07-01T02:13:52;6.40;;;5.22;;
55292;SDS011;41157;53.560;10.098;2022-07-01T02:16:18;9.05;;;4.95;;
55292;SDS011;41157;53.560;10.098;2022-07-01T02:18:44;6.72;;;5.80;;
55292;SDS011;41157;53.560;10.098;2022-07-01T02:21:10;10.10;;;4.97;;
55292;SDS011;41157;53.560;10.098;2022-07-01T02:23:36;6.13;;;5.47;;
55292;SDS011;41157;53.560;10.098;2022-07-01T02:26:02;6.82;;;5.15;;
55292;SDS011;41157;53.560;10.098;2022-07-01T02:28:28;6.38;;;5.03;;
55292;SDS011;41157;53.560;10.098;2022-07-01T02:30:54;6.82;;;5.45;;
55292;SDS011;41157;53.560;10.098;2022-07-01T02:33:20;8.20;;;5.10;;
55292;SDS011;41157;53.560;10.098;2022-07-01T02:35:47;8.30;;;5.63;;
55292;SDS011;41157;53.560;10.098;2022-07-01T02:38:13;6.40;;;5.45;;
55292;SDS011;41157;53.560;10.098;2022-07-01T02:40:39;6.72;;;5.97;;
55292;SDS011;41157;53.560;10.098;2022-07-01T02:43:07;8.32;;;5.90;;
55292;SDS011;41157;53.560;10.098;2022-07-01T02:45:34;8.77;;;5.55;;
55292;SDS011;41157;53.560;10.098;2022-07-01T02:48:00;7.25;;;5.50;;
55292;SDS011;41157;53.560;10.098;2022-07-01T02:50:26;6.60;;;5.93;;
55292;SDS011;41157;53.560;10.098;2022-07-01T02:52:52;5.85;;;5.13;;
55292;SDS011;41157;53.560;10.098;2022-07-01T02:55:18;7.50;;;5.70;;
55292;SDS011;41157;53.560;10.098;2022-07-01T02:57:45;8.00;;;5.80;;
55292;SDS011;41157;53.560;10.098;2022-07-01T03:00:14;14.07;;;5.72;;
55292;SDS011;41157;53.560;10.098;2022-07-01T03:02:40;6.78;;;5.63;;
55292;SDS011;41157;53.560;10.098;2022-07-01T03:05:07;9.48;;;5.97;;
55292;SDS011;41157;53.560;10.098;2022-07-01T03:07:33;8.45;;;6.50;;
55292;SDS011;41157;53.560;10.098;2022-07-01T03:10:03;8.40;;;5.97;;
55292;SDS011;41157;53.560;10.098;2022-07-01T03:12:29;9.43;;;6.10;;
55292;SDS011;41157;53.560;10.098;2022-07-01T03:17:26;9.40;;;6.93;;
55292;SDS011;41157;53.560;10.098;2022-07-01T03:19:52;9.32;;;7.25;;
55292;SDS011;41157;53.560;10.098;2022-07-01T03:22:22;11.52;;;7.57;;
55292;SDS011;41157;53.560;10.098;2022-07-01T03:24:48;12.73;;;8.43;;
55292;SDS011;41157;53.560;10.098;2022-07-01T03:27:15;11.18;;;6.93;;
55292;SDS011;41157;53.560;10.098;2022-07-01T03:29:41;9.13;;;6.43;;
55292;SDS011;41157;53.560;10.098;2022-07-01T03:32:08;8.27;;;5.80;;
55292;SDS011;41157;53.560;10.098;2022-07-01T03:34:35;6.15;;;5.55;;
55292;SDS011;41157;53.560;10.098;2022-07-01T03:37:02;6.70;;;5.57;;
55292;SDS011;41157;53.560;10.098;2022-07-01T03:39:27;10.05;;;5.80;;
55292;SDS011;41157;53.560;10.098;2022-07-01T03:41:53;7.30;;;6.55;;
55292;SDS011;41157;53.560;10.098;2022-07-01T03:44:19;10.25;;;7.28;;
55292;SDS011;41157;53.560;10.098;2022-07-01T03:46:45;9.50;;;7.93;;
55292;SDS011;41157;53.560;10.098;2022-07-01T03:49:11;12.35;;;8.77;;
55292;SDS011;41157;53.560;10.098;2022-07-01T03:51:37;12.00;;;9.35;;
55292;SDS011;41157;53.560;10.098;2022-07-01T03:54:03;12.82;;;11.15;;
55292;SDS011;41157;53.560;10.098;2022-07-01T03:56:48;12.80;;;11.00;;
55292;SDS011;41157;53.560;10.098;2022-07-01T03:59:14;13.75;;;11.50;;
55292;SDS011;41157;53.560;10.098;2022-07-01T04:01:40;14.18;;;11.93;;
55292;SDS011;41157;53.560;10.098;2022-07-01T04:04:06;14.27;;;12.77;;
55292;SDS011;41157;53.560;10.098;2022-07-01T04:06:32;13.32;;;12.02;;
55292;SDS011;41157;53.560;10.098;2022-07-01T04:08:57;15.07;;;12.25;;
55292;SDS011;41157;53.560;10.098;2022-07-01T04:11:24;13.38;;;11.43;;
55292;SDS011;41157;53.560;10.098;2022-07-01T04:13:50;12.95;;;10.82;;
55292;SDS011;41157;53.560;10.098;2022-07-01T04:16:16;13.55;;;10.18;;
55292;SDS011;41157;53.560;10.098;2022-07-01T04:18:43;11.85;;;9.73;;
55292;SDS011;41157;53.560;10.098;2022-07-01T04:21:10;12.80;;;9.07;;
55292;SDS011;41157;53.560;10.098;2022-07-01T04:23:54;10.27;;;9.00;;
55292;SDS011;41157;53.560;10.098;2022-07-01T04:26:22;11.27;;;8.65;;
55292;SDS011;41157;53.560;10.098;2022-07-01T04:28:48;8.68;;;6.80;;
55292;SDS011;41157;53.560;10.098;2022-07-01T04:31:14;9.15;;;7.60;;
55292;SDS011;41157;53.560;10.098;2022-07-01T04:33:40;8.35;;;7.47;;
55292;SDS011;41157;53.560;10.098;2022-07-01T04:36:06;7.00;;;6.22;;
55292;SDS011;41157;53.560;10.098;2022-07-01T04:38:32;7.82;;;7.00;;
55292;SDS011;41157;53.560;10.098;2022-07-01T04:40:58;7.95;;;6.72;;
55292;SDS011;41157;53.560;10.098;2022-07-01T04:43:43;6.55;;;5.85;;
55292;SDS011;41157;53.560;10.098;2022-07-01T04:46:08;7.80;;;6.38;;
55292;SDS011;41157;53.560;10.098;2022-07-01T04:48:34;7.82;;;6.50;;
55292;SDS011;41157;53.560;10.098;2022-07-01T04:51:00;9.77;;;6.40;;
55292;SDS011;41157;53.560;10.098;2022-07-01T04:53:26;6.97;;;5.63;;
55292;SDS011;41157;53.560;10.098;2022-07-01T04:55:52;9.40;;;5.80;;
55292;SDS011;41157;53.560;10.098;2022-07-01T04:58:18;5.60;;;5.10;;
55292;SDS011;41157;53.560;10.098;2022-07-01T05:00:44;9.05;;;5.30;;
55292;SDS011;41157;53.560;10.098;2022-07-01T05:03:10;6.15;;;5.43;;
55292;SDS011;41157;53.560;10.098;2022-07-01T05:05:36;8.00;;;5.28;;
55292;SDS011;41157;53.560;10.098;2022-07-01T05:08:02;5.88;;;5.28;;
55292;SDS011;41157;53.560;10.098;2022-07-01T05:10:28;7.68;;;5.30;;
55292;SDS011;41157;53.560;10.098;2022-07-01T05:12:54;13.00;;;5.45;;
55292;SDS011;41157;53.560;10.098;2022-07-01T05:15:20;6.80;;;5.43;;
55292;SDS011;41157;53.560;10.098;2022-07-01T05:17:46;8.45;;;5.00;;
55292;SDS011;41157;53.560;10.098;2022-07-01T05:20:31;8.52;;;5.68;;
55292;SDS011;41157;53.560;10.098;2022-07-01T05:23:15;7.07;;;5.30;;
55292;SDS011;41157;53.560;10.098;2022-07-01T05:25:41;7.93;;;5.30;;
55292;SDS011;41157;53.560;10.098;2022-07-01T05:28:07;13.00;;;6.38;;
55292;SDS011;41157;53.560;10.098;2022-07-01T05:30:33;12.20;;;5.75;;
55292;SDS011;41157;53.560;10.098;2022-07-01T05:32:59;20.70;;;6.22;;
55292;SDS011;41157;53.560;10.098;2022-07-01T05:35:25;10.95;;;5.97;;
55292;SDS011;41157;53.560;10.098;2022-07-01T05:37:51;11.35;;;5.55;;
55292;SDS011;41157;53.560;10.098;2022-07-01T05:40:17;11.02;;;5.60;;
55292;SDS011;41157;53.560;10.098;2022-07-01T05:42:43;11.68;;;5.03;;
55292;SDS011;41157;53.560;10.098;2022-07-01T05:45:09;8.57;;;4.88;;
55292;SDS011;41157;53.560;10.098;2022-07-01T05:47:35;11.13;;;4.30;;
55292;SDS011;41157;53.560;10.098;2022-07-01T05:50:01;8.70;;;4.43;;
55292;SDS011;41157;53.560;10.098;2022-07-01T05:52:27;9.45;;;4.10;;
55292;SDS011;41157;53.560;10.098;2022-07-01T05:54:53;5.50;;;3.15;;
55292;SDS011;41157;53.560;10.098;2022-07-01T05:57:20;5.80;;;3.17;;
55292;SDS011;41157;53.560;10.098;2022-07-01T05:59:46;4.28;;;2.88;;
55292;SDS011;41157;53.560;10.098;2022-07-01T06:02:12;7.95;;;3.58;;
55292;SDS011;41157;53.560;10.098;2022-07-01T06:04:38;6.50;;;3.40;;
55292;SDS011;41157;53.560;10.098;2022-07-01T06:07:04;7.13;;;2.72;;
55292;SDS011;41157;53.560;10.098;2022-07-01T06:09:30;10.05;;;2.85;;
55292;SDS011;41157;53.560;10.098;2022-07-01T06:11:56;6.75;;;2.28;;
55292;SDS011;41157;53.560;10.098;2022-07-01T06:14:22;6.10;;;2.15;;
55292;SDS011;41157;53.560;10.098;2022-07-01T06:16:48;5.72;;;2.00;;
55292;SDS011;41157;53.560;10.098;2022-07-01T06:19:14;4.15;;;1.80;;
55292;SDS011;41157;53.560;10.098;2022-07-01T06:21:40;4.72;;;1.48;;
55292;SDS011;41157;53.560;10.098;2022-07-01T06:24:06;3.75;;;1.95;;
55292;SDS011;41157;53.560;10.098;2022-07-01T06:26:32;5.88;;;2.05;;
55292;SDS011;41157;53.560;10.098;2022-07-01T06:28:58;4.63;;;1.73;;
55292;SDS011;41157;53.560;10.098;2022-07-01T06:31:24;3.55;;;1.60;;
55292;SDS011;41157;53.560;10.098;2022-07-01T06:33:50;3.35;;;1.80;;
55292;SDS011;41157;53.560;10.098;2022-07-01T06:36:16;4.43;;;2.00;;
55292;SDS011;41157;53.560;10.098;2022-07-01T06:38:42;7.35;;;2.00;;
55292;SDS011;41157;53.560;10.098;2022-07-01T06:41:08;7.35;;;1.88;;
55292;SDS011;41157;53.560;10.098;2022-07-01T06:43:53;4.20;;;1.92;;
55292;SDS011;41157;53.560;10.098;2022-07-01T06:46:19;6.18;;;2.10;;
55292;SDS011;41157;53.560;10.098;2022-07-01T06:48:45;6.95;;;2.25;;
55292;SDS011;41157;53.560;10.098;2022-07-01T06:51:11;4.57;;;2.03;;
55292;SDS011;41157;53.560;10.098;2022-07-01T06:53:38;6.13;;;2.00;;
55292;SDS011;41157;53.560;10.098;2022-07-01T06:56:04;2.95;;;1.80;;
55292;SDS011;41157;53.560;10.098;2022-07-01T06:58:30;3.90;;;1.67;;
55292;SDS011;41157;53.560;10.098;2022-07-01T07:00:56;3.13;;;1.83;;
55292;SDS011;41157;53.560;10.098;2022-07-01T07:03:22;3.60;;;1.80;;
55292;SDS011;41157;53.560;10.098;2022-07-01T07:05:48;4.40;;;2.13;;
55292;SDS011;41157;53.560;10.098;2022-07-01T07:08:14;3.20;;;1.90;;
55292;SDS011;41157;53.560;10.098;2022-07-01T07:10:40;3.05;;;1.73;;
55292;SDS011;41157;53.560;10.098;2022-07-01T07:13:06;4.10;;;2.30;;
55292;SDS011;41157;53.560;10.098;2022-07-01T07:15:32;4.20;;;2.10;;
55292;SDS011;41157;53.560;10.098;2022-07-01T07:17:58;6.60;;;2.63;;
55292;SDS011;41157;53.560;10.098;2022-07-01T07:20:25;3.50;;;2.00;;
55292;SDS011;41157;53.560;10.098;2022-07-01T07:22:51;5.78;;;2.13;;
55292;SDS011;41157;53.560;10.098;2022-07-01T07:25:17;3.55;;;2.08;;
55292;SDS011;41157;53.560;10.098;2022-07-01T07:27:43;4.15;;;2.10;;
55292;SDS011;41157;53.560;10.098;2022-07-01T07:30:11;3.47;;;2.08;;
55292;SDS011;41157;53.560;10.098;2022-07-01T07:32:38;3.78;;;2.00;;
55292;SDS011;41157;53.560;10.098;2022-07-01T07:35:05;3.83;;;2.00;;
55292;SDS011;41157;53.560;10.098;2022-07-01T07:37:31;3.45;;;2.03;;
55292;SDS011;41157;53.560;10.098;2022-07-01T07:39:57;3.10;;;2.10;;
55292;SDS011;41157;53.560;10.098;2022-07-01T07:42:23;8.68;;;1.95;;
55292;SDS011;41157;53.560;10.098;2022-07-01T07:44:49;7.20;;;2.28;;
55292;SDS011;41157;53.560;10.098;2022-07-01T07:47:15;3.10;;;1.60;;
55292;SDS011;41157;53.560;10.098;2022-07-01T07:49:41;1.98;;;1.45;;
55292;SDS011;41157;53.560;10.098;2022-07-01T07:52:07;1.95;;;1.70;;
55292;SDS011;41157;53.560;10.098;2022-07-01T07:54:33;2.08;;;1.73;;
55292;SDS011;41157;53.560;10.098;2022-07-01T07:56:59;2.95;;;1.50;;
55292;SDS011;41157;53.560;10.098;2022-07-01T07:59:25;2.35;;;2.03;;
55292;SDS011;41157;53.560;10.098;2022-07-01T08:01:51;2.78;;;1.65;;
55292;SDS011;41157;53.560;10.098;2022-07-01T08:04:17;2.33;;;1.70;;
55292;SDS011;41157;53.560;10.098;2022-07-01T08:06:43;2.35;;;1.50;;
55292;SDS011;41157;53.560;10.098;2022-07-01T08:09:09;2.10;;;1.70;;
55292;SDS011;41157;53.560;10.098;2022-07-01T08:11:35;1.77;;;1.42;;
55292;SDS011;41157;53.560;10.098;2022-07-01T08:14:02;2.03;;;1.30;;
55292;SDS011;41157;53.560;10.098;2022-07-01T08:16:28;2.95;;;1.70;;
55292;SDS011;41157;53.560;10.098;2022-07-01T08:18:54;2.10;;;1.83;;
55292;SDS011;41157;53.560;10.098;2022-07-01T08:21:20;4.70;;;1.67;;
55292;SDS011;41157;53.560;10.098;2022-07-01T08:23:46;2.00;;;1.63;;
55292;SDS011;41157;53.560;10.098;2022-07-01T08:26:12;3.97;;;1.67;;
55292;SDS011;41157;53.560;10.098;2022-07-01T08:28:39;4.63;;;1.95;;
55292;SDS011;41157;53.560;10.098;2022-07-01T08:31:05;2.08;;;1.80;;
55292;SDS011;41157;53.560;10.098;2022-07-01T08:33:32;3.28;;;2.00;;
55292;SDS011;41157;53.560;10.098;2022-07-01T08:35:58;4.10;;;2.22;;
55292;SDS011;41157;53.560;10.098;2022-07-01T08:38:24;3.30;;;2.35;;
55292;SDS011;41157;53.560;10.098;2022-07-01T08:40:50;4.30;;;1.98;;
55292;SDS011;41157;53.560;10.098;2022-07-01T08:43:16;3.08;;;2.00;;
55292;SDS011;41157;53.560;10.098;2022-07-01T08:45:42;3.20;;;2.10;;
55292;SDS011;41157;53.560;10.098;2022-07-01T08:48:08;4.80;;;2.40;;
55292;SDS011;41157;53.560;10.098;2022-07-01T08:50:35;2.67;;;2.20;;
55292;SDS011;41157;53.560;10.098;2022-07-01T08:53:04;3.28;;;2.20;;
55292;SDS011;41157;53.560;10.098;2022-07-01T08:55:31;3.05;;;2.40;;
55292;SDS011;41157;53.560;10.098;2022-07-01T08:57:57;3.17;;;2.20;;
55292;SDS011;41157;53.560;10.098;2022-07-01T09:00:30;2.20;;;2.05;;
55292;SDS011;41157;53.560;10.098;2022-07-01T09:02:57;4.38;;;2.22;;
55292;SDS011;41157;53.560;10.098;2022-07-01T09:05:24;2.95;;;2.03;;
55292;SDS011;41157;53.560;10.098;2022-07-01T09:07:58;2.47;;;2.00;;
55292;SDS011;41157;53.560;10.098;2022-07-01T09:10:24;2.47;;;2.05;;
55292;SDS011;41157;53.560;10.098;2022-07-01T09:12:51;5.78;;;2.30;;
55292;SDS011;41157;53.560;10.098;2022-07-01T09:15:21;3.50;;;2.15;;
55292;SDS011;41157;53.560;10.098;2022-07-01T09:17:49;3.85;;;2.05;;
55292;SDS011;41157;53.560;10.098;2022-07-01T09:20:25;4.75;;;2.35;;
55292;SDS011;41157;53.560;10.098;2022-07-01T09:22:59;3.30;;;2.15;;
55292;SDS011;41157;53.560;10.098;2022-07-01T09:25:29;3.05;;;2.20;;
55292;SDS011;41157;53.560;10.098;2022-07-01T09:28:04;4.03;;;2.20;;
55292;SDS011;41157;53.560;10.098;2022-07-01T09:30:30;3.53;;;2.15;;
55292;SDS011;41157;53.560;10.098;2022-07-01T09:33:04;4.25;;;2.20;;
55292;SDS011;41157;53.560;10.098;2022-07-01T09:35:30;2.15;;;1.95;;
55292;SDS011;41157;53.560;10.098;2022-07-01T09:37:57;2.22;;;2.05;;
55292;SDS011;41157;53.560;10.098;2022-07-01T09:40:23;4.72;;;2.25;;
55292;SDS011;41157;53.560;10.098;2022-07-01T09:42:49;4.00;;;2.30;;
55292;SDS011;41157;53.560;10.098;2022-07-01T09:45:15;4.22;;;2.00;;
55292;SDS011;41157;53.560;10.098;2022-07-01T09:47:42;3.45;;;2.03;;
55292;SDS011;41157;53.560;10.098;2022-07-01T09:50:08;4.65;;;2.00;;
55292;SDS011;41157;53.560;10.098;2022-07-01T09:52:35;2.25;;;2.10;;
55292;SDS011;41157;53.560;10.098;2022-07-01T09:55:01;6.28;;;2.30;;
55292;SDS011;41157;53.560;10.098;2022-07-01T09:57:27;6.47;;;2.33;;
55292;SDS011;41157;53.560;10.098;2022-07-01T09:59:53;3.97;;;2.10;;
55292;SDS011;41157;53.560;10.098;2022-07-01T10:02:21;9.20;;;2.30;;
55292;SDS011;41157;53.560;10.098;2022-07-01T10:04:54;6.13;;;2.72;;
55292;SDS011;41157;53.560;10.098;2022-07-01T10:12:49;2.63;;;2.17;;
55292;SDS011;41157;53.560;10.098;2022-07-01T10:15:17;4.13;;;2.25;;
55292;SDS011;41157;53.560;10.098;2022-07-01T10:17:45;4.03;;;2.65;;
55292;SDS011;41157;53.560;10.098;2022-07-01T10:20:15;3.05;;;2.35;;
55292;SDS011;41157;53.560;10.098;2022-07-01T10:22:42;2.30;;;2.10;;
55292;SDS011;41157;53.560;10.098;2022-07-01T10:38:32;2.53;;;1.90;;
55292;SDS011;41157;53.560;10.098;2022-07-01T10:40:58;9.10;;;6.65;;
55292;SDS011;41157;53.560;10.098;2022-07-01T10:43:37;3.40;;;2.15;;
55292;SDS011;41157;53.560;10.098;2022-07-01T10:46:06;4.20;;;2.30;;
55292;SDS011;41157;53.560;10.098;2022-07-01T10:48:33;2.65;;;2.42;;
55292;SDS011;41157;53.560;10.098;2022-07-01T10:50:59;3.38;;;2.40;;
55292;SDS011;41157;53.560;10.098;2022-07-01T10:53:30;4.05;;;2.67;;
55292;SDS011;41157;53.560;10.098;2022-07-01T10:56:14;5.22;;;2.90;;
55292;SDS011;41157;53.560;10.098;2022-07-01T10:58:40;5.38;;;3.47;;
55292;SDS011;41157;53.560;10.098;2022-07-01T11:01:08;3.00;;;2.80;;
55292;SDS011;41157;53.560;10.098;2022-07-01T11:03:35;4.88;;;2.78;;
55292;SDS011;41157;53.560;10.098;2022-07-01T11:06:01;4.70;;;3.08;;
55292;SDS011;41157;53.560;10.098;2022-07-01T11:08:27;3.83;;;3.05;;
55292;SDS011;41157;53.560;10.098;2022-07-01T11:10:54;5.28;;;3.63;;
55292;SDS011;41157;53.560;10.098;2022-07-01T11:13:21;4.63;;;3.25;;
55292;SDS011;41157;53.560;10.098;2022-07-01T11:15:47;5.88;;;3.30;;
55292;SDS011;41157;53.560;10.098;2022-07-01T11:18:14;4.53;;;3.67;;
55292;SDS011;41157;53.560;10.098;2022-07-01T11:20:41;5.93;;;3.63;;
55292;SDS011;41157;53.560;10.098;2022-07-01T11:23:07;4.95;;;3.47;;
55292;SDS011;41157;53.560;10.098;2022-07-01T11:25:33;4.03;;;3.50;;
55292;SDS011;41157;53.560;10.098;2022-07-01T11:27:59;4.65;;;3.38;;
55292;SDS011;41157;53.560;10.098;2022-07-01T11:30:25;8.05;;;3.85;;
55292;SDS011;41157;53.560;10.098;2022-07-01T11:32:52;5.28;;;3.78;;
55292;SDS011;41157;53.560;10.098;2022-07-01T11:35:22;5.07;;;4.07;;
55292;SDS011;41157;53.560;10.098;2022-07-01T11:38:11;6.13;;;4.40;;
55292;SDS011;41157;53.560;10.098;2022-07-01T11:40:57;6.30;;;3.95;;
55292;SDS011;41157;53.560;10.098;2022-07-01T11:43:24;5.28;;;4.28;;
55292;SDS011;41157;53.560;10.098;2022-07-01T11:45:51;5.22;;;3.78;;
55292;SDS011;41157;53.560;10.098;2022-07-01T11:48:31;4.18;;;3.78;;
55292;SDS011;41157;53.560;10.098;2022-07-01T11:50:58;6.35;;;4.32;;
55292;SDS011;41157;53.560;10.098;2022-07-01T11:53:24;5.38;;;3.88;;
55292;SDS011;41157;53.560;10.098;2022-07-01T11:55:50;5.47;;;3.92;;
55292;SDS011;41157;53.560;10.098;2022-07-01T11:58:16;5.60;;;3.80;;
55292;SDS011;41157;53.560;10.098;2022-07-01T12:00:42;7.13;;;4.50;;
55292;SDS011;41157;53.560;10.098;2022-07-01T12:03:08;5.07;;;4.20;;
55292;SDS011;41157;53.560;10.098;2022-07-01T12:05:35;6.28;;;4.07;;
55292;SDS011;41157;53.560;10.098;2022-07-01T12:08:02;5.75;;;3.80;;
55292;SDS011;41157;53.560;10.098;2022-07-01T12:10:28;4.70;;;3.90;;
55292;SDS011;41157;53.560;10.098;2022-07-01T12:12:56;4.95;;;3.53;;
55292;SDS011;41157;53.560;10.098;2022-07-01T12:15:22;4.28;;;3.88;;
55292;SDS011;41157;53.560;10.098;2022-07-01T12:17:48;6.32;;;3.95;;
55292;SDS011;41157;53.560;10.098;2022-07-01T12:20:14;5.65;;;3.90;;
55292;SDS011;41157;53.560;10.098;2022-07-01T12:22:41;4.35;;;3.70;;
55292;SDS011;41157;53.560;10.098;2022-07-01T12:25:08;4.15;;;3.75;;
55292;SDS011;41157;53.560;10.098;2022-07-01T12:27:34;5.03;;;4.05;;
55292;SDS011;41157;53.560;10.098;2022-07-01T12:30:03;4.50;;;3.92;;
55292;SDS011;41157;53.560;10.098;2022-07-01T12:32:29;4.63;;;4.18;;
55292;SDS011;41157;53.560;10.098;2022-07-01T12:34:57;5.82;;;4.25;;
55292;SDS011;41157;53.560;10.098;2022-07-01T12:37:31;5.90;;;4.32;;
55292;SDS011;41157;53.560;10.098;2022-07-01T12:39:58;6.63;;;3.88;;
55292;SDS011;41157;53.560;10.098;2022-07-01T12:42:37;5.50;;;3.80;;
55292;SDS011;41157;53.560;10.098;2022-07-01T12:45:04;6.53;;;3.75;;
55292;SDS011;41157;53.560;10.098;2022-07-01T12:47:38;5.10;;;4.20;;
55292;SDS011;41157;53.560;10.098;2022-07-01T12:52:36;6.50;;;3.95;;
55292;SDS011;41157;53.560;10.098;2022-07-01T12:55:12;4.65;;;3.60;;
55292;SDS011;41157;53.560;10.098;2022-07-01T12:57:38;10.23;;;3.72;;
55292;SDS011;41157;53.560;10.098;2022-07-01T13:00:05;5.40;;;3.75;;
55292;SDS011;41157;53.560;10.098;2022-07-01T13:02:31;4.57;;;3.10;;
55292;SDS011;41157;53.560;10.098;2022-07-01T13:04:57;6.43;;;3.60;;
55292;SDS011;41157;53.560;10.098;2022-07-01T13:07:23;5.32;;;3.28;;
55292;SDS011;41157;53.560;10.098;2022-07-01T13:09:49;4.15;;;3.08;;
55292;SDS011;41157;53.560;10.098;2022-07-01T13:12:15;3.88;;;3.08;;
55292;SDS011;41157;53.560;10.098;2022-07-01T13:14:41;5.35;;;2.80;;
55292;SDS011;41157;53.560;10.098;2022-07-01T13:17:09;7.30;;;2.80;;
55292;SDS011;41157;53.560;10.098;2022-07-01T13:19:35;5.28;;;2.60;;
55292;SDS011;41157;53.560;10.098;2022-07-01T13:22:05;4.43;;;2.83;;
55292;SDS011;41157;53.560;10.098;2022-07-01T13:24:31;4.10;;;2.83;;
55292;SDS011;41157;53.560;10.098;2022-07-01T13:26:57;3.65;;;2.75;;
55292;SDS011;41157;53.560;10.098;2022-07-01T13:29:23;4.07;;;2.55;;
55292;SDS011;41157;53.560;10.098;2022-07-01T13:31:49;3.88;;;2.50;;
55292;SDS011;41157;53.560;10.098;2022-07-01T13:34:15;12.55;;;2.47;;
55292;SDS011;41157;53.560;10.098;2022-07-01T13:36:41;5.63;;;2.65;;
55292;SDS011;41157;53.560;10.098;2022-07-01T13:39:07;2.83;;;2.58;;
55292;SDS011;41157;53.560;10.098;2022-07-01T13:41:34;4.25;;;2.55;;
55292;SDS011;41157;53.560;10.098;2022-07-01T13:44:00;4.45;;;2.78;;
55292;SDS011;41157;53.560;10.098;2022-07-01T13:46:26;3.30;;;2.20;;
55292;SDS011;41157;53.560;10.098;2022-07-01T13:48:52;3.90;;;2.35;;
55292;SDS011;41157;53.560;10.098;2022-07-01T13:51:18;6.38;;;2.40;;
55292;SDS011;41157;53.560;10.098;2022-07-01T13:53:44;4.35;;;2.15;;
55292;SDS011;41157;53.560;10.098;2022-07-01T13:56:10;3.25;;;2.42;;
55292;SDS011;41157;53.560;10.098;2022-07-01T13:58:36;6.25;;;2.30;;
55292;SDS011;41157;53.560;10.098;2022-07-01T14:01:02;6.80;;;2.70;;
55292;SDS011;41157;53.560;10.098;2022-07-01T14:03:49;3.17;;;1.92;;
55292;SDS011;41157;53.560;10.098;2022-07-01T14:06:14;4.07;;;1.80;;
55292;SDS011;41157;53.560;10.098;2022-07-01T14:08:40;4.30;;;1.92;;
55292;SDS011;41157;53.560;10.098;2022-07-01T14:11:06;1.73;;;1.60;;
55292;SDS011;41157;53.560;10.098;2022-07-01T14:13:32;3.83;;;1.80;;
55292;SDS011;41157;53.560;10.098;2022-07-01T14:16:02;6.20;;;2.20;;
55292;SDS011;41157;53.560;10.098;2022-07-01T14:18:31;2.78;;;2.10;;
55292;SDS011;41157;53.560;10.098;2022-07-01T14:20:57;3.05;;;2.10;;
55292;SDS011;41157;53.560;10.098;2022-07-01T14:23:23;2.40;;;2.20;;
55292;SDS011;41157;53.560;10.098;2022-07-01T14:25:49;4.35;;;1.95;;
55292;SDS011;41157;53.560;10.098;2022-07-01T14:28:15;2.78;;;2.20;;
55292;SDS011;41157;53.560;10.098;2022-07-01T14:30:41;4.13;;;2.00;;
55292;SDS011;41157;53.560;10.098;2022-07-01T14:33:07;5.07;;;3.00;;
55292;SDS011;41157;53.560;10.098;2022-07-01T14:35:33;3.38;;;2.20;;
55292;SDS011;41157;53.560;10.098;2022-07-01T14:37:59;3.50;;;2.20;;
55292;SDS011;41157;53.560;10.098;2022-07-01T14:40:25;3.95;;;2.22;;
55292;SDS011;41157;53.560;10.098;2022-07-01T14:42:51;4.88;;;2.38;;
55292;SDS011;41157;53.560;10.098;2022-07-01T14:45:17;4.72;;;2.60;;
55292;SDS011;41157;53.560;10.098;2022-07-01T14:47:44;6.20;;;2.67;;
55292;SDS011;41157;53.560;10.098;2022-07-01T14:50:10;4.03;;;2.80;;
55292;SDS011;41157;53.560;10.098;2022-07-01T14:52:36;3.65;;;2.40;;
55292;SDS011;41157;53.560;10.098;2022-07-01T14:55:03;5.07;;;2.60;;
55292;SDS011;41157;53.560;10.098;2022-07-01T14:57:29;4.78;;;2.50;;